Time;durP1;ratioP1;P1;durP2;ratioP2;P2;SDS_P1;SDS_P2;PMS_P1;PMS_P2;Temp;Humidity;BMP_temperature;BMP_pressure;BME280_temperature;BME280_humidity;BME280_pressure;Samples;Min_cycle;Max_cycle;Signal;HPM_P1;HPM_P2
2021/08/12 00:00:53;;;;;;;14.23;12.98;;;15.00;99.90;;;;;;5067695;28;20470;-73
2021/08/12 00:03:19;;;;;;;18.67;16.77;;;15.00;99.90;;;;;;5063553;28;20068;-73
2021/08/12 00:05:45;;;;;;;20.13;17.52;;;15.00;99.90;;;;;;5054198;28;21068;-73
2021/08/12 00:08:11;;;;;;;20.92;18.83;;;15.00;99.90;;;;;;5058083;28;20044;-75
2021/08/12 00:10:37;;;;;;;14.02;12.63;;;14.90;99.90;;;;;;5038878;28;20047;-74
2021/08/12 00:13:03;;;;;;;14.57;13.27;;;15.00;99.90;;;;;;5076540;28;20036;-73
2021/08/12 00:15:29;;;;;;;21.15;19.10;;;14.90;99.90;;;;;;5054448;28;20041;-73
2021/08/12 00:17:55;;;;;;;13.07;11.98;;;14.90;99.90;;;;;;5074131;28;20051;-73
2021/08/12 00:20:21;;;;;;;15.73;14.23;;;14.90;99.90;;;;;;5058718;28;20055;-72
2021/08/12 00:22:47;;;;;;;14.32;13.02;;;14.90;99.90;;;;;;5068642;28;20112;-73
2021/08/12 00:25:13;;;;;;;14.52;13.13;;;14.90;99.90;;;;;;5070945;28;20131;-72
2021/08/12 00:27:39;;;;;;;15.02;13.70;;;14.90;99.90;;;;;;5077258;28;20401;-74
2021/08/12 00:30:06;;;;;;;16.13;14.43;;;14.90;99.90;;;;;;5071136;28;20123;-74
2021/08/12 00:32:32;;;;;;;13.63;12.35;;;14.90;99.90;;;;;;5064191;28;20044;-74
2021/08/12 00:34:58;;;;;;;12.10;10.90;;;14.80;99.90;;;;;;5070116;28;20130;-73
2021/08/12 00:37:24;;;;;;;19.23;13.00;;;14.80;99.90;;;;;;5071086;28;20203;-73
2021/08/12 00:39:50;;;;;;;14.80;12.65;;;14.80;99.90;;;;;;5063124;28;20083;-73
2021/08/12 00:42:20;;;;;;;14.20;12.90;;;14.70;99.90;;;;;;5072909;28;20111;-74
2021/08/12 00:44:46;;;;;;;12.15;10.95;;;14.80;99.90;;;;;;5077743;28;20461;-73
2021/08/12 00:47:12;;;;;;;18.92;17.05;;;14.70;99.90;;;;;;5074457;28;20729;-74
2021/08/12 00:49:39;;;;;;;14.13;12.93;;;14.70;99.90;;;;;;5040602;28;20044;-73
2021/08/12 00:52:09;;;;;;;14.80;12.20;;;14.70;99.90;;;;;;5065257;28;20123;-73
2021/08/12 00:54:39;;;;;;;12.32;11.05;;;14.70;99.90;;;;;;5075544;28;20092;-73
2021/08/12 00:57:06;;;;;;;11.57;10.52;;;14.50;99.90;;;;;;5046623;28;20556;-73
2021/08/12 00:59:40;;;;;;;10.68;9.38;;;14.50;99.90;;;;;;5069453;28;20066;-72
2021/08/12 01:02:11;;;;;;;10.55;9.60;;;14.50;99.90;;;;;;5071403;28;20104;-72
2021/08/12 01:04:38;;;;;;;14.38;12.98;;;14.50;99.90;;;;;;5071959;28;20040;-74
2021/08/12 01:07:26;;;;;;;14.85;13.55;;;14.40;99.90;;;;;;5067889;28;20070;-74
2021/08/12 01:10:04;;;;;;;18.23;16.15;;;14.50;99.90;;;;;;5077934;28;20127;-73
2021/08/12 01:12:41;;;;;;;26.17;21.38;;;14.50;99.90;;;;;;5073918;28;20050;-73
2021/08/12 01:15:15;;;;;;;26.80;23.65;;;14.40;99.90;;;;;;5071208;28;20064;-73
2021/08/12 01:17:50;;;;;;;20.75;18.63;;;14.30;99.90;;;;;;5078285;28;20551;-73
2021/08/12 01:20:19;;;;;;;16.10;14.52;;;14.30;99.90;;;;;;5069538;28;20143;-73
2021/08/12 01:22:48;;;;;;;22.02;19.63;;;14.30;99.90;;;;;;5073152;28;20066;-75
2021/08/12 01:25:23;;;;;;;20.48;18.38;;;14.30;99.90;;;;;;5071910;28;20037;-72
2021/08/12 01:28:02;;;;;;;20.55;18.40;;;14.30;99.90;;;;;;5078921;28;20040;-72
2021/08/12 01:30:33;;;;;;;17.48;15.82;;;14.30;99.90;;;;;;5069366;28;20043;-75
2021/08/12 01:33:28;;;;;;;16.65;15.15;;;14.30;99.90;;;;;;5076502;28;20048;-74
2021/08/12 01:35:58;;;;;;;18.13;16.17;;;14.20;99.90;;;;;;5073114;28;20045;-72
2021/08/12 01:38:27;;;;;;;20.60;18.60;;;14.10;99.90;;;;;;5072555;28;20995;-72
2021/08/12 01:40:58;;;;;;;11.98;10.82;;;14.10;99.90;;;;;;5058862;28;20339;-73
2021/08/12 01:43:25;;;;;;;14.93;13.52;;;14.10;99.90;;;;;;5078815;28;20131;-73
2021/08/12 01:45:54;;;;;;;15.85;14.23;;;14.10;99.90;;;;;;5071770;28;20028;-73
2021/08/12 01:48:22;;;;;;;15.23;13.77;;;14.00;99.90;;;;;;5074427;28;20036;-73
2021/08/12 01:50:50;;;;;;;14.73;13.23;;;14.00;99.90;;;;;;5074231;28;20110;-73
2021/08/12 01:53:18;;;;;;;18.05;12.68;;;14.00;99.90;;;;;;5073872;28;20032;-73
2021/08/12 01:55:44;;;;;;;14.43;13.10;;;14.00;99.90;;;;;;5073977;28;20097;-73
2021/08/12 01:58:12;;;;;;;17.55;15.73;;;13.90;99.90;;;;;;5076224;28;20254;-73
2021/08/12 02:00:48;;;;;;;20.55;18.65;;;13.90;99.90;;;;;;5077729;28;20042;-71
2021/08/12 02:03:17;;;;;;;19.35;17.45;;;13.80;99.90;;;;;;5078781;28;20036;-72
2021/08/12 02:05:45;;;;;;;18.10;16.33;;;13.70;99.90;;;;;;5079715;28;20048;-71
2021/08/12 02:08:11;;;;;;;17.35;15.63;;;13.70;99.90;;;;;;5077047;28;20066;-72
2021/08/12 02:10:37;;;;;;;17.25;15.48;;;13.70;99.90;;;;;;5058005;28;20437;-72
2021/08/12 02:13:06;;;;;;;21.73;18.42;;;13.70;99.90;;;;;;5066072;28;20044;-74
2021/08/12 02:15:32;;;;;;;17.27;15.48;;;13.70;99.90;;;;;;5084142;28;20653;-73
2021/08/12 02:17:57;;;;;;;14.70;13.35;;;13.60;99.90;;;;;;5054077;28;20086;-73
2021/08/12 02:20:23;;;;;;;18.35;16.42;;;13.60;99.90;;;;;;5074500;28;20068;-71
2021/08/12 02:22:57;;;;;;;23.98;19.88;;;13.60;99.90;;;;;;5079105;28;20826;-71
2021/08/12 02:25:36;;;;;;;15.85;14.35;;;13.60;99.90;;;;;;5080840;28;20044;-73
2021/08/12 02:28:11;;;;;;;16.45;15.05;;;13.60;99.90;;;;;;5065226;28;20051;-72
2021/08/12 02:30:40;;;;;;;16.80;15.13;;;13.60;99.90;;;;;;5076949;28;20113;-73
2021/08/12 02:33:10;;;;;;;17.13;15.48;;;13.70;99.90;;;;;;5073031;28;20029;-72
2021/08/12 02:35:38;;;;;;;19.58;17.67;;;13.70;99.90;;;;;;5078053;28;20052;-72
2021/08/12 02:38:11;;;;;;;17.38;15.60;;;13.80;99.90;;;;;;5056178;28;20117;-71
2021/08/12 02:40:38;;;;;;;17.83;16.23;;;13.80;99.90;;;;;;5075524;28;20438;-72
2021/08/12 02:43:06;;;;;;;16.52;14.85;;;13.90;99.90;;;;;;5068198;28;20042;-72
2021/08/12 02:45:33;;;;;;;15.75;14.13;;;13.90;99.90;;;;;;5083411;28;20043;-71
2021/08/12 02:48:00;;;;;;;17.65;15.18;;;13.80;99.90;;;;;;5075154;28;20040;-71
2021/08/12 02:50:27;;;;;;;16.65;15.15;;;13.80;99.90;;;;;;5083313;28;20040;-71
2021/08/12 02:52:53;;;;;;;18.35;16.50;;;13.80;99.90;;;;;;5073938;28;20048;-70
2021/08/12 02:55:20;;;;;;;21.73;19.42;;;13.80;99.90;;;;;;5071791;28;20062;-72
2021/08/12 02:57:45;;;;;;;17.70;16.00;;;13.80;99.90;;;;;;5052799;28;20093;-72
2021/08/12 03:00:12;;;;;;;16.67;15.13;;;13.80;99.90;;;;;;5076525;28;20099;-72
2021/08/12 03:02:42;;;;;;;17.25;15.65;;;13.80;99.90;;;;;;5056202;28;20661;-72
2021/08/12 03:05:09;;;;;;;18.35;16.52;;;13.80;99.90;;;;;;5086764;28;20047;-72
2021/08/12 03:07:36;;;;;;;15.52;14.13;;;13.80;99.90;;;;;;5082016;28;20037;-71
2021/08/12 03:10:03;;;;;;;16.33;14.70;;;13.80;99.90;;;;;;5074465;28;20037;-72
2021/08/12 03:12:29;;;;;;;17.15;14.43;;;13.80;99.90;;;;;;5077399;28;20044;-72
2021/08/12 03:14:56;;;;;;;16.55;14.95;;;13.80;99.90;;;;;;5077988;28;20124;-72
2021/08/12 03:17:23;;;;;;;16.33;14.80;;;13.70;99.90;;;;;;5088675;28;20044;-72
2021/08/12 03:19:49;;;;;;;14.48;13.10;;;13.80;99.90;;;;;;5076714;28;20119;-73
2021/08/12 03:22:16;;;;;;;16.70;15.15;;;13.70;99.90;;;;;;5067014;28;20517;-73
2021/08/12 03:24:44;;;;;;;15.52;13.98;;;13.80;99.90;;;;;;5058696;28;20036;-72
2021/08/12 03:27:11;;;;;;;14.27;12.90;;;13.80;99.90;;;;;;5076071;28;20347;-73
2021/08/12 03:29:39;;;;;;;20.45;18.45;;;13.90;99.90;;;;;;5070817;28;20079;-72
2021/08/12 03:32:06;;;;;;;25.08;19.55;;;13.80;99.90;;;;;;5076993;28;20040;-71
2021/08/12 03:34:31;;;;;;;14.32;12.93;;;13.80;99.90;;;;;;5068007;28;20056;-71
2021/08/12 03:36:58;;;;;;;15.55;13.95;;;13.70;99.90;;;;;;5075778;28;20406;-73
2021/08/12 03:39:24;;;;;;;15.55;14.13;;;13.80;99.90;;;;;;5075213;28;20729;-73
2021/08/12 03:41:51;;;;;;;15.25;13.75;;;13.80;99.90;;;;;;5084669;28;20039;-73
2021/08/12 03:44:18;;;;;;;15.05;13.55;;;13.80;99.90;;;;;;5070865;28;20119;-73
2021/08/12 03:46:44;;;;;;;15.13;13.63;;;13.70;99.90;;;;;;5071219;28;20044;-73
2021/08/12 03:49:10;;;;;;;13.98;12.68;;;13.70;99.90;;;;;;5082924;28;20827;-73
2021/08/12 03:51:36;;;;;;;15.70;13.77;;;13.80;99.90;;;;;;5079261;28;20041;-73
2021/08/12 03:54:06;;;;;;;17.45;15.75;;;13.70;99.90;;;;;;5079927;28;20048;-71
2021/08/12 03:56:31;;;;;;;18.85;16.52;;;13.70;99.90;;;;;;5078315;28;20143;-71
2021/08/12 03:58:57;;;;;;;17.92;16.30;;;13.70;99.90;;;;;;5080309;28;20529;-71
2021/08/12 04:01:23;;;;;;;19.90;18.05;;;13.70;99.90;;;;;;5074750;28;20119;-71
2021/08/12 04:03:49;;;;;;;20.48;18.48;;;13.70;99.90;;;;;;5074320;28;20040;-72
2021/08/12 04:06:16;;;;;;;18.95;17.15;;;13.70;99.90;;;;;;5076938;28;20379;-72
2021/08/12 04:08:43;;;;;;;17.80;16.10;;;13.70;99.90;;;;;;5085212;28;20056;-72
2021/08/12 04:11:10;;;;;;;15.95;14.55;;;13.70;99.90;;;;;;5080261;28;20100;-72
2021/08/12 04:13:35;;;;;;;16.60;14.88;;;13.70;99.90;;;;;;5073832;28;20040;-71
2021/08/12 04:16:02;;;;;;;18.20;16.30;;;13.70;99.90;;;;;;5073260;28;20462;-72
2021/08/12 04:18:28;;;;;;;17.88;16.17;;;13.70;99.90;;;;;;5075532;28;20060;-72
2021/08/12 04:20:54;;;;;;;18.42;16.58;;;13.70;99.90;;;;;;5076050;28;20059;-72
2021/08/12 04:23:19;;;;;;;17.42;15.07;;;13.80;99.90;;;;;;5073595;28;20490;-72
2021/08/12 04:25:46;;;;;;;17.73;15.30;;;13.70;99.90;;;;;;5074594;28;20037;-73
2021/08/12 04:28:12;;;;;;;19.23;17.23;;;13.70;99.90;;;;;;5075365;28;20665;-73
2021/08/12 04:30:41;;;;;;;18.95;16.63;;;13.70;99.90;;;;;;5065675;28;20040;-72
2021/08/12 04:33:07;;;;;;;26.42;23.48;;;13.70;99.90;;;;;;5069607;28;20376;-72
2021/08/12 04:35:32;;;;;;;24.55;21.92;;;13.70;99.90;;;;;;5074473;28;20117;-72
2021/08/12 04:37:58;;;;;;;31.77;28.48;;;13.70;99.90;;;;;;5082827;28;20245;-72
2021/08/12 04:40:24;;;;;;;30.23;26.55;;;13.80;99.90;;;;;;5083881;28;20157;-73
2021/08/12 04:42:52;;;;;;;26.88;24.17;;;13.80;99.90;;;;;;5070085;28;20064;-74
2021/08/12 04:45:20;;;;;;;31.15;27.92;;;13.80;99.90;;;;;;5076479;28;20095;-73
2021/08/12 04:47:46;;;;;;;29.80;26.50;;;13.80;99.90;;;;;;5076687;28;20040;-72
2021/08/12 04:50:13;;;;;;;27.50;24.70;;;13.90;99.90;;;;;;5070917;28;20043;-72
2021/08/12 04:52:41;;;;;;;32.03;28.67;;;13.90;99.90;;;;;;5086189;28;20044;-72
2021/08/12 04:55:10;;;;;;;43.58;36.78;;;14.00;99.90;;;;;;5028045;28;20075;-71
2021/08/12 04:57:37;;;;;;;55.17;39.58;;;14.00;99.90;;;;;;5082015;28;21067;-71
2021/08/12 05:00:04;;;;;;;50.47;39.42;;;14.10;99.90;;;;;;5074101;28;20445;-72
2021/08/12 05:02:30;;;;;;;57.22;39.78;;;14.10;99.90;;;;;;5082750;28;20089;-72
2021/08/12 05:04:56;;;;;;;43.20;34.97;;;14.10;99.90;;;;;;5082095;28;20040;-72
2021/08/12 05:07:22;;;;;;;55.70;41.45;;;14.10;99.90;;;;;;5076504;28;20491;-72
2021/08/12 05:09:48;;;;;;;55.08;41.03;;;14.20;99.90;;;;;;5081506;28;20451;-72
2021/08/12 05:12:19;;;;;;;37.13;33.17;;;14.20;99.90;;;;;;5063445;28;20079;-72
2021/08/12 05:14:46;;;;;;;49.20;40.92;;;14.40;99.90;;;;;;5074785;28;20039;-72
2021/08/12 05:17:12;;;;;;;39.85;35.63;;;14.40;99.90;;;;;;5069766;28;20044;-72
2021/08/12 05:19:38;;;;;;;49.25;38.97;;;14.50;99.90;;;;;;5075310;28;20046;-74
2021/08/12 05:22:04;;;;;;;34.60;30.85;;;14.60;99.90;;;;;;5076087;28;20086;-73
2021/08/12 05:24:30;;;;;;;37.75;33.65;;;14.60;99.90;;;;;;5069329;28;20040;-72
2021/08/12 05:26:56;;;;;;;40.35;34.22;;;14.60;99.90;;;;;;5072237;28;20032;-73
2021/08/12 05:29:22;;;;;;;39.67;32.78;;;14.70;99.90;;;;;;5069279;28;20048;-73
2021/08/12 05:31:48;;;;;;;37.97;33.97;;;14.80;99.90;;;;;;5074704;28;20047;-73
2021/08/12 05:34:17;;;;;;;38.35;32.08;;;14.80;99.90;;;;;;5070655;28;20042;-74
2021/08/12 05:36:44;;;;;;;45.50;38.55;;;14.90;99.90;;;;;;5076887;28;20509;-73
2021/08/12 05:39:12;;;;;;;33.05;29.17;;;14.90;99.90;;;;;;5078074;28;20040;-73
2021/08/12 05:41:40;;;;;;;35.10;31.40;;;14.90;99.90;;;;;;5076057;28;20043;-73
2021/08/12 05:44:06;;;;;;;35.75;31.90;;;14.90;99.90;;;;;;5071860;28;20063;-73
2021/08/12 05:46:32;;;;;;;34.70;31.00;;;15.00;99.90;;;;;;5078154;28;20071;-71
2021/08/12 05:48:58;;;;;;;34.90;31.30;;;15.00;99.90;;;;;;5072240;28;20400;-72
2021/08/12 05:51:24;;;;;;;35.83;31.98;;;15.00;99.90;;;;;;5071221;28;20044;-72
2021/08/12 05:53:49;;;;;;;44.30;36.35;;;15.10;99.90;;;;;;5073482;28;20032;-73
2021/08/12 05:56:15;;;;;;;36.67;32.53;;;15.10;99.90;;;;;;5072649;28;20483;-72
2021/08/12 05:58:42;;;;;;;42.60;36.33;;;15.10;99.90;;;;;;5068188;28;20075;-71
2021/08/12 06:01:11;;;;;;;54.58;41.33;;;15.20;99.90;;;;;;5068063;28;20912;-73
2021/08/12 06:03:37;;;;;;;48.25;39.97;;;15.20;99.90;;;;;;5049988;28;20067;-72
2021/08/12 06:06:03;;;;;;;49.95;41.15;;;15.30;99.90;;;;;;5075619;28;20036;-72
2021/08/12 06:08:29;;;;;;;51.85;42.50;;;15.40;99.90;;;;;;5059471;28;20599;-72
2021/08/12 06:10:55;;;;;;;53.45;42.72;;;15.50;99.90;;;;;;5034637;28;20043;-72
2021/08/12 06:13:21;;;;;;;47.13;40.63;;;15.60;99.90;;;;;;5057053;28;20491;-72
2021/08/12 06:15:47;;;;;;;56.58;45.53;;;15.60;99.90;;;;;;5053118;28;20043;-72
2021/08/12 06:18:14;;;;;;;51.63;41.20;;;15.70;99.90;;;;;;5074728;28;20134;-75
2021/08/12 06:20:42;;;;;;;45.30;39.40;;;15.80;99.90;;;;;;5072384;28;20047;-76
2021/08/12 06:23:09;;;;;;;46.60;38.67;;;15.90;99.90;;;;;;5071659;28;20048;-75
2021/08/12 06:25:38;;;;;;;48.00;39.90;;;16.00;99.90;;;;;;5070477;28;20309;-75
2021/08/12 06:28:05;;;;;;;40.10;35.63;;;16.00;99.90;;;;;;5078191;28;20060;-74
2021/08/12 06:30:32;;;;;;;43.13;38.40;;;16.00;99.90;;;;;;5069391;28;20036;-75
2021/08/12 06:32:58;;;;;;;47.25;40.33;;;16.10;99.90;;;;;;5050823;28;20037;-74
2021/08/12 06:35:26;;;;;;;45.05;40.08;;;16.10;99.90;;;;;;5066544;28;20052;-73
2021/08/12 06:37:53;;;;;;;36.38;32.45;;;16.20;99.90;;;;;;5076690;28;20037;-73
2021/08/12 06:40:25;;;;;;;37.05;32.95;;;16.30;99.90;;;;;;5068967;28;20041;-74
2021/08/12 06:42:52;;;;;;;43.65;37.00;;;16.30;99.90;;;;;;5078729;28;20086;-73
2021/08/12 06:45:22;;;;;;;39.03;33.47;;;16.30;99.90;;;;;;5075649;28;20124;-73
2021/08/12 06:47:49;;;;;;;39.05;34.85;;;16.40;99.90;;;;;;5050225;28;20098;-72
2021/08/12 06:50:16;;;;;;;40.63;36.35;;;16.40;99.90;;;;;;5076968;28;20043;-71
2021/08/12 06:52:43;;;;;;;41.22;34.83;;;16.60;99.90;;;;;;5079607;28;20463;-72
2021/08/12 06:55:10;;;;;;;37.58;33.50;;;16.70;99.90;;;;;;5073389;28;20507;-72
2021/08/12 06:57:36;;;;;;;35.58;31.80;;;16.90;99.90;;;;;;5077906;28;20708;-72
2021/08/12 07:00:03;;;;;;;34.72;31.13;;;17.10;99.90;;;;;;5070508;28;20174;-72
2021/08/12 07:02:40;;;;;;;35.00;31.42;;;17.20;99.90;;;;;;5066593;28;20042;-72
2021/08/12 07:05:07;;;;;;;35.88;32.15;;;17.20;99.90;;;;;;5041632;28;20043;-72
2021/08/12 07:07:36;;;;;;;33.50;30.00;;;17.30;99.90;;;;;;5076370;28;20095;-72
2021/08/12 07:10:03;;;;;;;35.25;30.33;;;17.40;99.90;;;;;;5053590;28;20043;-72
2021/08/12 07:12:29;;;;;;;34.33;29.27;;;17.50;99.90;;;;;;5071308;28;20044;-73
2021/08/12 07:14:55;;;;;;;32.15;28.58;;;17.60;99.90;;;;;;5070862;28;20399;-72
2021/08/12 07:17:21;;;;;;;31.67;28.30;;;17.70;99.90;;;;;;5053657;28;20048;-73
2021/08/12 07:19:50;;;;;;;28.77;25.88;;;17.70;99.90;;;;;;5073010;28;20032;-72
2021/08/12 07:22:20;;;;;;;29.73;26.63;;;17.80;99.90;;;;;;5056631;28;20039;-72
2021/08/12 07:24:46;;;;;;;31.23;27.92;;;17.90;99.90;;;;;;5066788;28;20060;-73
2021/08/12 07:27:11;;;;;;;30.38;27.17;;;17.90;99.90;;;;;;5062867;28;20380;-73
2021/08/12 07:29:37;;;;;;;28.83;25.80;;;17.90;99.90;;;;;;5065584;28;20452;-73
2021/08/12 07:32:05;;;;;;;30.67;27.10;;;18.00;99.90;;;;;;5071094;28;20068;-76
2021/08/12 07:34:31;;;;;;;29.65;26.42;;;18.10;99.90;;;;;;5071395;28;20184;-76
2021/08/12 07:36:57;;;;;;;28.02;25.23;;;18.20;99.90;;;;;;5076769;28;20044;-73
2021/08/12 07:39:29;;;;;;;26.27;23.58;;;18.40;99.90;;;;;;5049600;28;20032;-72
2021/08/12 07:41:55;;;;;;;28.17;24.88;;;18.70;99.90;;;;;;5074129;28;20056;-73
2021/08/12 07:44:24;;;;;;;24.88;22.00;;;18.90;99.90;;;;;;5077903;28;20051;-72
2021/08/12 07:46:50;;;;;;;24.25;21.83;;;19.00;99.90;;;;;;5059760;28;20036;-71
2021/08/12 07:49:16;;;;;;;25.63;22.52;;;19.20;99.90;;;;;;5075225;28;20494;-72
2021/08/12 07:51:42;;;;;;;24.52;21.73;;;19.30;99.90;;;;;;5066541;28;20098;-72
2021/08/12 07:54:11;;;;;;;26.00;23.38;;;19.30;99.90;;;;;;5072608;28;20040;-72
2021/08/12 07:56:37;;;;;;;26.23;22.83;;;19.40;99.90;;;;;;5065771;28;20047;-76
2021/08/12 07:59:02;;;;;;;24.55;22.15;;;19.40;99.90;;;;;;5063355;28;20047;-77
2021/08/12 08:01:31;;;;;;;25.30;21.75;;;19.70;99.90;;;;;;5073934;28;20047;-76
2021/08/12 08:03:59;;;;;;;22.25;19.90;;;19.80;99.60;;;;;;5073960;28;20040;-76
2021/08/12 08:06:26;;;;;;;21.73;19.52;;;20.00;99.60;;;;;;5071425;28;20043;-75
2021/08/12 08:08:51;;;;;;;21.92;18.52;;;20.20;98.80;;;;;;5076695;28;20028;-76
2021/08/12 08:11:17;;;;;;;20.65;18.08;;;20.40;98.20;;;;;;5059316;28;20476;-76
2021/08/12 08:13:44;;;;;;;19.63;17.70;;;20.50;98.00;;;;;;5076147;28;20041;-72
2021/08/12 08:16:10;;;;;;;19.92;17.77;;;20.60;96.80;;;;;;5057809;28;20048;-72
2021/08/12 08:18:36;;;;;;;18.65;15.77;;;20.60;96.70;;;;;;5063930;28;20028;-72
2021/08/12 08:21:03;;;;;;;17.75;15.88;;;20.70;96.90;;;;;;5072742;28;20108;-73
2021/08/12 08:23:29;;;;;;;17.40;15.40;;;20.80;97.20;;;;;;5075234;28;20122;-72
2021/08/12 08:25:55;;;;;;;15.75;13.57;;;21.00;96.50;;;;;;5072742;28;20040;-72
2021/08/12 08:28:21;;;;;;;13.93;12.10;;;21.20;96.40;;;;;;5047717;28;20059;-73
2021/08/12 08:30:47;;;;;;;14.32;12.82;;;21.30;94.90;;;;;;5068087;28;20044;-73
2021/08/12 08:33:13;;;;;;;13.90;12.35;;;21.40;94.70;;;;;;5073882;28;20045;-73
2021/08/12 08:35:39;;;;;;;14.88;13.35;;;21.50;94.90;;;;;;5056041;28;20082;-73
2021/08/12 08:38:06;;;;;;;12.07;10.88;;;21.60;94.30;;;;;;5072052;28;20048;-73
2021/08/12 08:40:33;;;;;;;13.20;11.05;;;21.80;94.80;;;;;;5074812;28;20075;-73
2021/08/12 08:42:59;;;;;;;12.23;10.93;;;21.90;94.40;;;;;;5077125;28;20044;-73
2021/08/12 08:45:27;;;;;;;13.05;10.90;;;22.00;93.40;;;;;;5076256;28;20048;-73
2021/08/12 08:47:56;;;;;;;13.98;11.93;;;22.20;93.50;;;;;;5079422;28;20181;-73
2021/08/12 08:50:28;;;;;;;13.23;10.30;;;22.30;93.60;;;;;;5071343;28;20044;-72
2021/08/12 08:52:54;;;;;;;11.25;10.15;;;22.40;92.40;;;;;;5072794;28;20050;-73
2021/08/12 08:55:23;;;;;;;12.20;9.95;;;22.40;92.10;;;;;;5046784;28;20056;-73
2021/08/12 08:57:54;;;;;;;10.80;9.75;;;22.40;92.60;;;;;;5049701;28;20487;-73
2021/08/12 09:00:21;;;;;;;12.13;9.63;;;22.60;93.10;;;;;;5078926;28;20125;-73
2021/08/12 09:02:48;;;;;;;15.73;9.50;;;22.70;92.60;;;;;;5067449;28;20120;-73
2021/08/12 09:05:14;;;;;;;10.35;8.35;;;22.80;91.30;;;;;;5076066;28;20044;-73
2021/08/12 09:07:41;;;;;;;10.90;7.78;;;22.80;91.20;;;;;;5069694;28;20037;-73
2021/08/12 09:10:10;;;;;;;8.80;7.88;;;22.80;90.60;;;;;;5066465;28;20045;-73
2021/08/12 09:12:36;;;;;;;8.95;8.00;;;22.90;90.10;;;;;;5075595;28;20097;-73
2021/08/12 09:15:12;;;;;;;10.23;8.52;;;23.00;90.70;;;;;;5055594;28;20036;-74
2021/08/12 09:17:41;;;;;;;9.80;8.15;;;23.00;90.10;;;;;;5076837;28;20028;-73
2021/08/12 09:20:22;;;;;;;11.10;8.40;;;23.10;89.10;;;;;;5036419;28;20045;-73
2021/08/12 09:22:51;;;;;;;10.13;8.75;;;23.20;90.10;;;;;;5069371;28;20044;-74
2021/08/12 09:25:48;;;;;;;11.77;10.40;;;23.30;90.30;;;;;;5072470;28;20090;-73
2021/08/12 09:28:26;;;;;;;12.70;10.95;;;23.40;89.00;;;;;;5077851;28;20052;-74
2021/08/12 09:31:01;;;;;;;15.40;12.32;;;23.50;88.60;;;;;;5073352;28;20052;-73
2021/08/12 09:33:29;;;;;;;15.02;12.13;;;23.50;87.60;;;;;;5070615;28;20488;-74
2021/08/12 09:35:55;;;;;;;14.55;12.52;;;23.50;87.60;;;;;;5070175;28;20057;-74
2021/08/12 09:38:23;;;;;;;13.88;11.48;;;23.50;87.50;;;;;;5060700;28;20078;-75
2021/08/12 09:41:00;;;;;;;14.15;11.95;;;23.60;87.70;;;;;;5058465;28;20036;-74
2021/08/12 09:43:36;;;;;;;11.52;10.32;;;23.60;87.10;;;;;;5060291;28;20043;-74
2021/08/12 09:46:06;;;;;;;12.60;10.75;;;23.70;88.10;;;;;;5070795;28;20055;-73
2021/08/12 09:48:32;;;;;;;12.68;9.68;;;23.70;87.70;;;;;;5076016;28;20055;-74
2021/08/12 09:51:11;;;;;;;12.07;9.35;;;23.80;88.10;;;;;;5054649;28;20415;-74
2021/08/12 09:53:38;;;;;;;10.88;8.77;;;23.90;87.90;;;;;;5068176;28;20104;-73
2021/08/12 09:56:09;;;;;;;9.77;8.77;;;23.90;85.70;;;;;;5068458;28;20044;-74
2021/08/12 09:58:35;;;;;;;10.52;8.88;;;24.00;85.90;;;;;;5068935;28;20064;-74
2021/08/12 10:01:19;;;;;;;10.23;8.70;;;24.10;86.80;;;;;;5074018;28;20060;-74
2021/08/12 10:03:51;;;;;;;12.88;8.45;;;24.20;85.80;;;;;;5070442;28;20497;-74
2021/08/12 10:06:22;;;;;;;9.98;7.72;;;24.10;84.70;;;;;;5074917;28;20041;-74
2021/08/12 10:08:48;;;;;;;10.82;7.53;;;24.10;84.50;;;;;;5059045;28;20082;-74
2021/08/12 10:11:31;;;;;;;9.23;7.68;;;24.10;83.60;;;;;;5073075;28;20465;-74
2021/08/12 10:14:02;;;;;;;9.48;7.15;;;24.20;83.90;;;;;;5071520;28;20037;-74
2021/08/12 10:16:32;;;;;;;8.77;6.88;;;24.20;82.90;;;;;;5069720;28;20391;-73
2021/08/12 10:18:59;;;;;;;;;;;24.20;82.30;;;;;;5073618;28;20502;-73
2021/08/12 10:21:28;;;;;;;10.10;7.80;;;24.30;84.30;;;;;;5075132;28;19920;-78
2021/08/12 10:24:02;;;;;;;10.65;8.68;;;24.40;84.20;;;;;;5065868;28;20071;-73
2021/08/12 10:26:37;;;;;;;9.32;8.15;;;24.40;83.50;;;;;;5073359;28;20175;-75
2021/08/12 10:29:11;;;;;;;11.60;8.30;;;24.50;83.50;;;;;;5071274;28;20049;-73
2021/08/12 10:31:45;;;;;;;8.93;6.85;;;24.60;82.70;;;;;;5075925;28;20556;-74
2021/08/12 10:34:12;;;;;;;8.93;6.00;;;24.80;84.20;;;;;;5072095;28;20526;-74
2021/08/12 10:36:39;;;;;;;7.63;5.45;;;24.80;79.40;;;;;;5072328;28;20044;-75
2021/08/12 10:39:06;;;;;;;7.47;6.10;;;24.80;77.60;;;;;;5071065;28;20142;-74
2021/08/12 10:41:36;;;;;;;8.25;5.82;;;24.80;78.70;;;;;;5071269;28;20049;-78
2021/08/12 10:44:03;;;;;;;9.35;5.90;;;24.80;79.10;;;;;;5069871;28;20493;-79
2021/08/12 10:46:40;;;;;;;7.82;5.80;;;24.80;79.60;;;;;;5054574;28;20041;-79
2021/08/12 10:49:25;;;;;;;7.82;6.75;;;24.90;78.20;;;;;;5071536;28;20040;-80
2021/08/12 10:52:05;;;;;;;9.65;6.13;;;25.00;74.30;;;;;;5071751;28;20489;-80
2021/08/12 10:54:33;;;;;;;8.43;5.80;;;25.00;73.00;;;;;;5066634;28;20076;-81
2021/08/12 10:57:17;;;;;;;8.98;6.35;;;25.00;74.60;;;;;;5078492;28;20075;-79
2021/08/12 10:59:43;;;;;;;6.90;5.85;;;25.00;74.90;;;;;;5069026;28;20479;-79
2021/08/12 11:02:27;;;;;;;9.23;6.97;;;25.00;76.80;;;;;;5040260;28;20053;-80
2021/08/12 11:05:01;;;;;;;8.30;7.22;;;25.10;76.80;;;;;;5070728;28;20583;-79
2021/08/12 11:07:39;;;;;;;9.70;6.63;;;25.10;75.10;;;;;;5058611;28;20066;-76
2021/08/12 11:10:15;;;;;;;11.38;8.23;;;25.30;75.70;;;;;;5055457;28;20083;-76
2021/08/12 11:12:53;;;;;;;11.07;7.90;;;25.30;76.70;;;;;;5073736;28;20653;-77
2021/08/12 11:15:38;;;;;;;11.15;8.88;;;25.40;77.00;;;;;;5072898;28;20053;-76
2021/08/12 11:18:06;;;;;;;10.93;8.73;;;25.40;77.10;;;;;;5073360;28;20048;-76
2021/08/12 11:20:37;;;;;;;9.02;7.65;;;25.30;77.70;;;;;;5068717;28;20068;-77
2021/08/12 11:23:35;;;;;;;8.75;7.85;;;25.40;79.70;;;;;;5073723;28;20129;-77
2021/08/12 11:26:03;;;;;;;11.17;7.33;;;25.40;78.70;;;;;;5064289;28;20050;-77
2021/08/12 11:28:41;;;;;;;7.60;6.80;;;25.40;81.80;;;;;;5076247;28;20354;-77
2021/08/12 11:31:30;;;;;;;7.97;7.00;;;25.50;81.00;;;;;;5068239;28;20032;-77
2021/08/12 11:34:01;;;;;;;11.40;8.53;;;25.60;79.40;;;;;;5069369;28;20113;-77
2021/08/12 11:36:34;;;;;;;9.77;8.35;;;25.60;79.40;;;;;;5069934;28;20278;-77
2021/08/12 11:39:07;;;;;;;10.52;7.43;;;25.70;78.30;;;;;;5075322;28;20045;-77
2021/08/12 11:41:43;;;;;;;7.65;6.75;;;25.70;79.10;;;;;;5072077;28;20048;-76
2021/08/12 11:44:15;;;;;;;8.52;6.90;;;25.80;79.90;;;;;;5064220;28;20064;-76
2021/08/12 11:46:42;;;;;;;10.98;7.70;;;25.80;77.20;;;;;;5075799;28;20119;-76
2021/08/12 11:49:13;;;;;;;8.70;6.80;;;25.90;78.50;;;;;;5071511;28;20058;-76
2021/08/12 11:51:43;;;;;;;7.95;6.00;;;26.00;80.50;;;;;;5079322;28;20483;-76
2021/08/12 11:54:10;;;;;;;8.38;5.95;;;26.20;81.40;;;;;;5070723;28;20040;-78
2021/08/12 11:56:37;;;;;;;11.32;6.75;;;26.30;80.30;;;;;;5076831;28;22392;-77
2021/08/12 11:59:05;;;;;;;9.13;6.50;;;26.30;74.80;;;;;;5067980;28;20040;-77
2021/08/12 12:01:33;;;;;;;8.57;6.00;;;26.20;76.40;;;;;;5073468;28;20506;-77
2021/08/12 12:04:05;;;;;;;8.82;6.18;;;26.30;78.10;;;;;;5073889;28;20054;-77
2021/08/12 12:06:50;;;;;;;8.52;6.10;;;26.20;76.20;;;;;;5075990;28;20046;-77
2021/08/12 12:09:32;;;;;;;9.35;6.70;;;26.10;75.60;;;;;;5076084;28;20040;-77
2021/08/12 12:12:10;;;;;;;8.70;6.40;;;26.00;75.70;;;;;;5064152;28;20040;-77
2021/08/12 12:14:43;;;;;;;8.77;7.20;;;26.10;76.10;;;;;;5069135;28;20063;-78
2021/08/12 12:17:18;;;;;;;10.27;7.03;;;26.10;73.20;;;;;;5070890;28;20037;-77
2021/08/12 12:20:04;;;;;;;9.60;7.65;;;26.00;72.30;;;;;;5071468;28;20521;-77
2021/08/12 12:22:31;;;;;;;9.25;7.00;;;25.90;73.70;;;;;;5079793;28;20036;-78
2021/08/12 12:25:02;;;;;;;9.00;6.60;;;25.90;75.80;;;;;;5068328;28;20129;-78
2021/08/12 12:27:32;;;;;;;8.75;7.30;;;25.90;77.30;;;;;;5072582;28;20142;-78
2021/08/12 12:30:11;;;;;;;9.38;6.78;;;25.90;77.50;;;;;;5049828;28;20505;-78
2021/08/12 12:32:39;;;;;;;9.68;8.57;;;25.90;80.10;;;;;;5075413;28;20056;-78
2021/08/12 12:35:06;;;;;;;10.45;7.43;;;25.90;77.30;;;;;;5081326;28;20056;-78
2021/08/12 12:37:38;;;;;;;10.35;8.10;;;25.80;79.70;;;;;;5058801;28;20056;-76
2021/08/12 12:40:17;;;;;;;9.50;8.00;;;25.80;78.90;;;;;;5059817;28;20429;-76